Time;durP1;ratioP1;P1;durP2;ratioP2;P2;SDS_P1;SDS_P2;PMS_P1;PMS_P2;Temp;Humidity;BMP_temperature;BMP_pressure;BME280_temperature;BME280_humidity;BME280_pressure;Samples;Min_cycle;Max_cycle;Signal;HPM_P1;HPM_P2
2021/05/13 00:01:23;;;;;;;23.05;15.05;;;;;;;10.35;100.00;95663.22;4957134;28;20061;-61
2021/05/13 00:03:53;;;;;;;24.58;15.50;;;;;;;10.44;100.00;95660.44;4987190;28;20132;-61
2021/05/13 00:06:22;;;;;;;21.30;15.02;;;;;;;10.37;100.00;95654.19;4986871;28;20088;-61
2021/05/13 00:08:56;;;;;;;20.13;12.93;;;;;;;10.27;100.00;95656.13;4990574;28;20042;-61
2021/05/13 00:11:29;;;;;;;21.02;14.65;;;;;;;10.33;100.00;95660.75;4959406;28;20041;-60
2021/05/13 00:13:59;;;;;;;19.58;14.75;;;;;;;10.44;100.00;95654.34;4987815;28;20092;-60
2021/05/13 00:16:30;;;;;;;18.70;13.43;;;;;;;10.41;100.00;95652.03;4981576;28;20065;-60
2021/05/13 00:19:01;;;;;;;18.42;14.02;;;;;;;10.28;100.00;95651.69;4994368;28;20061;-61
2021/05/13 00:21:29;;;;;;;18.60;14.13;;;;;;;10.40;100.00;95642.50;4964116;28;20081;-61
2021/05/13 00:23:59;;;;;;;20.60;13.70;;;;;;;10.26;100.00;95629.97;4996554;28;20062;-61
2021/05/13 00:26:36;;;;;;;17.95;13.15;;;;;;;10.33;100.00;95636.22;4959432;28;20061;-62
2021/05/13 00:29:05;;;;;;;19.55;13.65;;;;;;;10.25;100.00;95633.53;4983577;28;20108;-62
2021/05/13 00:31:35;;;;;;;21.17;14.52;;;;;;;10.27;100.00;95632.41;4979110;28;20040;-61
2021/05/13 00:34:06;;;;;;;20.20;13.88;;;;;;;10.20;100.00;95637.50;4979885;28;20085;-61
2021/05/13 00:36:38;;;;;;;18.75;12.50;;;;;;;10.15;100.00;95628.41;4966270;28;20085;-59
2021/05/13 00:39:09;;;;;;;16.83;12.70;;;;;;;10.32;100.00;95624.84;4989209;28;20452;-61
2021/05/13 00:41:39;;;;;;;18.42;13.07;;;;;;;10.27;100.00;95624.53;4990505;28;20042;-62
2021/05/13 00:44:09;;;;;;;16.75;13.38;;;;;;;10.29;100.00;95617.28;4964642;28;20046;-62
2021/05/13 00:46:38;;;;;;;17.30;12.48;;;;;;;10.32;100.00;95613.47;4979670;28;20069;-62
2021/05/13 00:49:09;;;;;;;17.45;12.57;;;;;;;10.28;100.00;95612.97;4971614;28;20034;-63
2021/05/13 00:51:38;;;;;;;17.30;12.40;;;;;;;10.16;100.00;95614.28;4981005;28;20512;-61
2021/05/13 00:54:10;;;;;;;19.23;13.75;;;;;;;10.29;100.00;95616.44;4986040;28;20062;-60
2021/05/13 00:56:38;;;;;;;18.02;13.05;;;;;;;10.11;100.00;95616.56;4986081;28;20520;-62
2021/05/13 00:59:09;;;;;;;18.60;12.35;;;;;;;10.18;100.00;95618.38;4982510;28;20803;-63
2021/05/13 01:01:48;;;;;;;17.95;13.05;;;;;;;10.32;100.00;95611.66;4977838;28;20082;-61
2021/05/13 01:04:18;;;;;;;17.88;13.52;;;;;;;10.23;100.00;95604.72;4989237;28;20073;-62
2021/05/13 01:06:49;;;;;;;17.05;12.75;;;;;;;10.34;100.00;95604.44;4981174;28;20039;-62
2021/05/13 01:09:22;;;;;;;20.25;13.73;;;;;;;10.21;100.00;95612.78;4986940;28;20115;-61
2021/05/13 01:11:54;;;;;;;17.88;12.68;;;;;;;10.32;100.00;95606.38;4986497;28;20085;-63
2021/05/13 01:14:25;;;;;;;17.77;12.38;;;;;;;10.25;100.00;95604.56;4988516;28;20081;-59
2021/05/13 01:16:59;;;;;;;16.63;12.93;;;;;;;10.27;100.00;95608.72;4985431;28;20474;-58
2021/05/13 01:19:27;;;;;;;18.17;12.25;;;;;;;10.19;100.00;95608.69;4980528;28;20067;-60
2021/05/13 01:21:57;;;;;;;19.17;12.90;;;;;;;10.20;100.00;95605.06;4981462;28;20567;-59
2021/05/13 01:24:26;;;;;;;18.40;13.10;;;;;;;10.35;100.00;95602.63;4978264;28;20074;-62
2021/05/13 01:26:55;;;;;;;16.98;12.82;;;;;;;10.30;100.00;95602.28;4988530;28;20488;-61
2021/05/13 01:29:27;;;;;;;18.50;13.70;;;;;;;10.29;100.00;95600.63;4983415;28;20041;-61
2021/05/13 01:31:57;;;;;;;18.95;13.13;;;;;;;10.22;100.00;95603.91;4986635;28;20061;-63
2021/05/13 01:34:25;;;;;;;19.48;13.00;;;;;;;10.14;100.00;95598.63;4985104;28;20785;-59
2021/05/13 01:36:54;;;;;;;19.10;13.32;;;;;;;10.22;100.00;95600.47;4987802;28;20076;-63
2021/05/13 01:39:24;;;;;;;18.48;13.40;;;;;;;10.20;100.00;95597.97;4984839;28;20480;-62
2021/05/13 01:41:53;;;;;;;20.40;14.00;;;;;;;10.26;100.00;95598.34;4990046;28;20050;-62
2021/05/13 01:44:22;;;;;;;17.42;13.10;;;;;;;10.20;100.00;95589.25;4979721;28;20042;-58
2021/05/13 01:46:50;;;;;;;19.13;13.32;;;;;;;10.15;100.00;95586.25;4986693;28;20065;-62
2021/05/13 01:49:21;;;;;;;19.75;13.43;;;;;;;10.04;100.00;95582.13;4987511;28;20073;-63
2021/05/13 01:51:50;;;;;;;20.53;13.77;;;;;;;10.34;100.00;95590.44;4992904;28;20061;-63
2021/05/13 01:54:21;;;;;;;19.48;13.25;;;;;;;10.08;100.00;95578.22;4991558;28;20092;-64
2021/05/13 01:56:50;;;;;;;16.85;13.25;;;;;;;10.05;100.00;95583.81;4992965;28;20670;-63
2021/05/13 01:59:19;;;;;;;17.15;12.88;;;;;;;10.05;100.00;95588.22;4969630;28;20074;-62
2021/05/13 02:01:47;;;;;;;18.08;13.27;;;;;;;10.17;100.00;95582.47;4986049;28;20058;-62
2021/05/13 02:04:16;;;;;;;17.98;12.68;;;;;;;10.16;100.00;95580.03;4993690;28;20508;-63
2021/05/13 02:06:45;;;;;;;19.83;13.90;;;;;;;10.13;100.00;95570.63;4989884;28;20037;-60
2021/05/13 02:09:13;;;;;;;18.88;12.90;;;;;;;9.97;100.00;95583.78;4986525;28;20684;-62
2021/05/13 02:11:41;;;;;;;17.25;12.65;;;;;;;10.15;100.00;95573.94;4998219;28;20385;-62
2021/05/13 02:14:11;;;;;;;18.52;13.30;;;;;;;10.08;100.00;95575.59;4971175;28;20064;-63
2021/05/13 02:16:39;;;;;;;19.73;12.82;;;;;;;10.06;100.00;95569.63;4981944;28;20038;-63
2021/05/13 02:19:08;;;;;;;20.83;13.40;;;;;;;10.08;100.00;95564.19;4974530;28;20065;-62
2021/05/13 02:21:37;;;;;;;21.77;14.50;;;;;;;10.31;100.00;95565.22;4991207;28;20062;-63
2021/05/13 02:24:06;;;;;;;18.77;13.57;;;;;;;10.16;100.00;95558.94;4993529;28;20434;-63
2021/05/13 02:26:35;;;;;;;18.83;13.48;;;;;;;10.07;100.00;95566.00;4977934;28;20038;-62
2021/05/13 02:29:04;;;;;;;18.45;12.65;;;;;;;10.15;100.00;95568.66;4986820;28;20070;-63
2021/05/13 02:31:33;;;;;;;19.00;13.68;;;;;;;10.07;100.00;95568.66;4983110;28;20081;-62
2021/05/13 02:34:01;;;;;;;19.00;13.60;;;;;;;10.02;100.00;95560.41;4987127;28;20068;-61
2021/05/13 02:36:30;;;;;;;17.70;12.90;;;;;;;10.08;100.00;95557.13;4986839;28;20070;-62
2021/05/13 02:38:59;;;;;;;17.27;13.73;;;;;;;10.16;100.00;95559.78;4988204;28;20081;-64
2021/05/13 02:41:28;;;;;;;18.00;13.48;;;;;;;10.34;100.00;95557.00;4985539;28;21358;-62
2021/05/13 02:43:57;;;;;;;19.02;13.85;;;;;;;10.15;100.00;95555.50;4985602;28;20054;-61
2021/05/13 02:46:26;;;;;;;23.25;14.45;;;;;;;10.32;100.00;95547.59;4982696;28;20104;-61
2021/05/13 02:48:56;;;;;;;19.35;13.80;;;;;;;10.08;100.00;95546.59;4986354;28;20045;-62
2021/05/13 02:51:25;;;;;;;21.25;14.82;;;;;;;10.27;100.00;95549.94;4986253;28;20050;-62
2021/05/13 02:53:53;;;;;;;20.80;13.95;;;;;;;10.07;100.00;95549.38;4995549;28;20054;-62
2021/05/13 02:56:22;;;;;;;19.63;15.70;;;;;;;10.18;100.00;95549.06;4984069;28;20529;-62
2021/05/13 02:58:52;;;;;;;22.33;15.63;;;;;;;10.16;100.00;95554.50;4989610;28;20467;-63
2021/05/13 03:01:25;;;;;;;18.73;14.40;;;;;;;10.15;100.00;95544.97;4983090;28;20060;-63
2021/05/13 03:03:56;;;;;;;21.40;16.00;;;;;;;10.17;100.00;95555.31;4986766;28;20563;-62
2021/05/13 03:06:25;;;;;;;21.75;15.43;;;;;;;10.02;100.00;95547.25;4985212;28;20474;-61
2021/05/13 03:08:56;;;;;;;22.90;16.73;;;;;;;10.23;100.00;95544.94;4995294;28;20053;-63
2021/05/13 03:11:27;;;;;;;23.65;17.02;;;;;;;10.22;100.00;95545.94;4985741;28;20042;-63
2021/05/13 03:13:58;;;;;;;22.60;16.42;;;;;;;10.25;100.00;95547.41;4981332;28;20085;-63
2021/05/13 03:16:27;;;;;;;25.35;17.40;;;;;;;10.25;100.00;95546.59;4982041;28;20517;-63
2021/05/13 03:18:57;;;;;;;24.88;16.88;;;;;;;10.20;100.00;95545.28;4980890;28;20125;-63
2021/05/13 03:21:29;;;;;;;25.58;17.67;;;;;;;10.27;100.00;95553.38;4989611;28;20043;-61
2021/05/13 03:24:02;;;;;;;25.52;18.15;;;;;;;10.25;100.00;95552.69;4990434;28;20085;-60
2021/05/13 03:26:39;;;;;;;25.33;17.88;;;;;;;10.10;100.00;95547.25;4972335;28;20600;-63
2021/05/13 03:29:10;;;;;;;26.52;19.02;;;;;;;10.06;100.00;95543.31;4980130;28;20077;-58
2021/05/13 03:31:39;;;;;;;27.20;18.80;;;;;;;10.25;100.00;95551.84;4986119;28;20042;-62
2021/05/13 03:34:10;;;;;;;31.15;18.95;;;;;;;10.30;100.00;95545.16;4985359;28;20066;-62
2021/05/13 03:36:39;;;;;;;26.05;18.92;;;;;;;10.23;100.00;95550.22;4975135;28;20042;-61
2021/05/13 03:39:09;;;;;;;26.05;19.27;;;;;;;10.21;100.00;95546.91;4986282;28;20078;-58
2021/05/13 03:41:39;;;;;;;25.80;18.92;;;;;;;10.15;100.00;95537.06;4991372;28;20078;-62
2021/05/13 03:44:08;;;;;;;27.55;18.85;;;;;;;10.15;100.00;95544.97;4987420;28;20374;-61
2021/05/13 03:46:37;;;;;;;27.50;19.45;;;;;;;10.18;100.00;95543.78;4983314;28;20116;-61
2021/05/13 03:49:05;;;;;;;28.05;18.65;;;;;;;10.21;100.00;95541.66;4982542;28;20066;-62
2021/05/13 03:51:34;;;;;;;28.50;19.23;;;;;;;10.23;100.00;95544.94;4987709;28;20065;-60
2021/05/13 03:54:03;;;;;;;28.83;18.65;;;;;;;10.16;100.00;95543.16;4971703;28;20508;-61
2021/05/13 03:56:32;;;;;;;29.55;18.50;;;;;;;10.31;100.00;95538.06;4990009;28;20078;-58
2021/05/13 03:59:05;;;;;;;30.00;20.42;;;;;;;10.23;100.00;95544.94;4984639;28;20077;-60
2021/05/13 04:01:46;;;;;;;29.25;20.25;;;;;;;10.27;100.00;95545.47;4980045;28;20066;-64
2021/05/13 04:04:16;;;;;;;29.85;20.33;;;;;;;10.30;100.00;95554.88;4987257;28;20513;-62
2021/05/13 04:06:45;;;;;;;27.75;18.65;;;;;;;10.27;100.00;95539.38;4991956;28;20093;-62
2021/05/13 04:09:13;;;;;;;26.00;18.15;;;;;;;10.30;100.00;95541.69;4986681;28;20082;-60
2021/05/13 04:11:42;;;;;;;29.17;20.17;;;;;;;10.35;100.00;95544.63;4990009;28;20078;-61
2021/05/13 04:14:11;;;;;;;28.50;19.00;;;;;;;10.45;100.00;95540.84;4985528;28;20050;-63
2021/05/13 04:16:42;;;;;;;30.92;19.33;;;;;;;10.46;100.00;95539.06;4984353;28;20150;-61
2021/05/13 04:19:11;;;;;;;28.05;20.13;;;;;;;10.55;100.00;95545.94;4981279;28;20051;-60
2021/05/13 04:21:40;;;;;;;31.88;20.67;;;;;;;10.52;100.00;95550.72;4988207;28;20092;-61
2021/05/13 04:24:10;;;;;;;28.55;19.63;;;;;;;10.34;100.00;95548.28;4982212;28;20467;-63
2021/05/13 04:26:40;;;;;;;32.85;19.42;;;;;;;10.32;100.00;95545.78;4993004;28;20053;-62
2021/05/13 04:29:09;;;;;;;30.23;20.05;;;;;;;10.49;100.00;95543.16;4987086;28;20060;-62
2021/05/13 04:31:38;;;;;;;30.30;20.55;;;;;;;10.34;100.00;95548.28;4978345;28;20460;-62
2021/05/13 04:34:07;;;;;;;27.98;19.77;;;;;;;10.53;100.00;95540.03;4991108;28;20440;-60
2021/05/13 04:36:35;;;;;;;30.60;19.42;;;;;;;10.38;100.00;95553.03;4978498;28;20414;-60
2021/05/13 04:39:06;;;;;;;29.17;19.50;;;;;;;10.54;100.00;95551.38;4984290;28;20626;-60
2021/05/13 04:41:35;;;;;;;31.45;19.65;;;;;;;10.59;100.00;95546.44;4988435;28;20050;-59
2021/05/13 04:44:06;;;;;;;28.98;20.50;;;;;;;10.51;100.00;95546.44;4985327;28;20042;-60
2021/05/13 04:46:38;;;;;;;32.55;21.98;;;;;;;10.42;100.00;95549.06;4983986;28;20077;-61
2021/05/13 04:49:16;;;;;;;29.65;19.63;;;;;;;10.42;100.00;95542.97;4984435;28;20068;-63
2021/05/13 04:51:47;;;;;;;30.55;19.92;;;;;;;10.64;100.00;95542.31;4968470;28;20235;-62
2021/05/13 04:54:17;;;;;;;28.45;19.33;;;;;;;10.65;100.00;95538.69;4977085;28;20578;-63
2021/05/13 04:56:47;;;;;;;29.33;18.25;;;;;;;10.53;100.00;95549.72;4989856;28;20074;-61
2021/05/13 04:59:16;;;;;;;27.63;20.02;;;;;;;10.54;100.00;95536.41;4981315;28;20066;-61
2021/05/13 05:01:45;;;;;;;28.85;20.02;;;;;;;10.83;100.00;95533.19;4978769;28;20081;-60
2021/05/13 05:04:14;;;;;;;29.40;19.58;;;;;;;10.66;100.00;95531.59;4985930;28;20070;-61
2021/05/13 05:06:43;;;;;;;31.88;19.95;;;;;;;10.78;100.00;95532.88;4983835;28;20050;-62
2021/05/13 05:09:13;;;;;;;28.45;20.00;;;;;;;10.97;100.00;95533.50;4981530;28;20100;-62
2021/05/13 05:11:41;;;;;;;29.00;19.80;;;;;;;11.01;100.00;95527.72;4993719;28;20081;-63
2021/05/13 05:14:11;;;;;;;29.33;20.38;;;;;;;10.87;100.00;95526.63;4983712;28;20078;-62
2021/05/13 05:16:40;;;;;;;28.58;19.90;;;;;;;11.05;100.00;95520.28;4980524;28;20143;-61
2021/05/13 05:19:09;;;;;;;26.60;17.53;;;;;;;10.72;100.00;95528.28;4987036;28;20038;-62
2021/05/13 05:21:38;;;;;;;26.88;18.05;;;;;;;10.76;100.00;95526.13;4986744;28;20058;-62
2021/05/13 05:24:09;;;;;;;28.00;19.73;;;;;;;11.17;100.00;95522.34;4995316;28;20057;-60
2021/05/13 05:26:38;;;;;;;27.35;19.67;;;;;;;11.00;100.00;95518.13;4988222;28;20066;-63
2021/05/13 05:29:06;;;;;;;26.38;19.35;;;;;;;10.96;100.00;95530.03;4991799;28;20038;-63
2021/05/13 05:31:36;;;;;;;28.40;19.90;;;;;;;11.30;100.00;95515.72;4984088;28;20066;-60
2021/05/13 05:34:05;;;;;;;25.92;19.27;;;;;;;11.33;100.00;95520.66;4983018;28;20043;-63
2021/05/13 05:36:34;;;;;;;23.92;16.73;;;;;;;11.02;100.00;95516.16;4993228;28;20042;-63
2021/05/13 05:39:03;;;;;;;27.23;19.52;;;;;;;11.43;100.00;95520.44;4991156;28;20085;-61
2021/05/13 05:41:32;;;;;;;25.90;18.15;;;;;;;11.54;100.00;95512.94;4988248;28;20050;-63
2021/05/13 05:44:02;;;;;;;25.05;19.27;;;;;;;11.60;100.00;95499.06;4991579;28;20052;-62
2021/05/13 05:46:30;;;;;;;25.38;18.27;;;;;;;11.69;100.00;95497.19;4967451;28;20084;-63
2021/05/13 05:49:01;;;;;;;21.37;17.43;;;;;;;11.88;100.00;95502.03;4983729;28;20069;-63
2021/05/13 05:51:30;;;;;;;24.10;16.40;;;;;;;11.36;100.00;95499.22;4993712;28;20038;-64
2021/05/13 05:54:00;;;;;;;21.65;15.55;;;;;;;11.51;100.00;95492.19;4992282;28;20089;-59
2021/05/13 05:56:28;;;;;;;25.35;16.92;;;;;;;11.75;100.00;95487.75;4986965;28;20125;-63
2021/05/13 05:58:57;;;;;;;23.38;17.35;;;;;;;11.61;100.00;95497.25;4989233;28;20081;-63
2021/05/13 06:01:30;;;;;;;21.42;17.30;;;;;;;11.53;100.00;95495.47;4982464;28;20038;-62
2021/05/13 06:04:00;;;;;;;23.88;16.63;;;;;;;11.43;100.00;95501.97;4987236;28;20042;-63
2021/05/13 06:06:30;;;;;;;21.83;15.93;;;;;;;11.36;100.00;95499.22;4991514;28;20050;-63
2021/05/13 06:09:00;;;;;;;20.25;16.75;;;;;;;11.73;100.00;95500.28;4988724;28;20478;-61
2021/05/13 06:11:29;;;;;;;22.02;16.38;;;;;;;11.40;100.00;95505.78;4994742;28;20054;-63
2021/05/13 06:13:58;;;;;;;21.95;15.98;;;;;;;11.67;100.00;95493.91;4985282;28;20441;-63
2021/05/13 06:16:27;;;;;;;22.85;16.63;;;;;;;11.76;100.00;95502.59;4986940;28;20081;-63
2021/05/13 06:18:57;;;;;;;20.40;15.75;;;;;;;11.48;100.00;95497.81;4987017;28;20057;-63
2021/05/13 06:21:26;;;;;;;19.23;15.57;;;;;;;11.91;100.00;95497.41;4989843;28;20554;-63
2021/05/13 06:23:56;;;;;;;19.70;14.43;;;;;;;12.02;100.00;95489.88;4994303;28;20073;-61
2021/05/13 06:26:27;;;;;;;18.63;14.10;;;;;;;11.99;100.00;95490.22;4987429;28;20552;-61
2021/05/13 06:29:02;;;;;;;20.02;14.98;;;;;;;11.97;100.00;95494.84;4990270;28;20043;-64
2021/05/13 06:31:31;;;;;;;19.90;14.95;;;;;;;12.04;100.00;95494.97;4986610;28;20073;-63
2021/05/13 06:34:00;;;;;;;17.73;14.13;;;;;;;12.22;100.00;95494.69;4982386;28;20081;-63
2021/05/13 06:36:30;;;;;;;19.40;14.70;;;;;;;12.16;100.00;95495.41;4986580;28;20413;-63
2021/05/13 06:38:58;;;;;;;18.52;14.07;;;;;;;12.04;100.00;95497.63;4993061;28;20042;-63
2021/05/13 06:41:27;;;;;;;21.00;13.77;;;;;;;12.22;100.00;95499.97;4986498;23;20097;-45
2021/05/13 06:43:56;;;;;;;20.05;14.18;;;;;;;12.39;100.00;95496.19;4977822;28;20046;-47
2021/05/13 06:46:25;;;;;;;18.58;13.43;;;;;;;12.26;100.00;95491.50;4980029;28;20081;-46
2021/05/13 06:48:54;;;;;;;20.63;13.85;;;;;;;12.23;100.00;95497.13;4975311;28;20042;-46
2021/05/13 06:51:22;;;;;;;19.02;14.10;;;;;;;12.46;100.00;95502.41;4980909;28;20062;-46
2021/05/13 06:53:52;;;;;;;18.38;14.40;;;;;;;12.36;100.00;95501.81;4981559;28;20528;-46
2021/05/13 06:56:21;;;;;;;17.50;13.50;;;;;;;12.41;100.00;95502.09;4972620;28;20402;-45
2021/05/13 06:58:51;;;;;;;17.27;12.98;;;;;;;12.81;100.00;95498.22;4977299;28;20053;-46
2021/05/13 07:01:22;;;;;;;20.30;14.57;;;;;;;13.10;100.00;95493.09;4973860;28;20125;-46
2021/05/13 07:03:50;;;;;;;;;;;;;;;12.78;100.00;95495.13;4981667;28;20070;-47
2021/05/13 07:06:19;;;;;;;16.70;11.93;;;;;;;12.57;100.00;95498.47;4976952;28;20912;-49
2021/05/13 07:08:48;;;;;;;16.48;11.90;;;;;;;13.38;100.00;95490.63;4981959;28;20066;-44
2021/05/13 07:11:17;;;;;;;19.30;12.77;;;;;;;13.28;100.00;95488.28;4982439;28;20078;-45
2021/05/13 07:13:45;;;;;;;19.73;12.43;;;;;;;13.39;100.00;95487.81;4978705;28;20090;-49
2021/05/13 07:16:14;;;;;;;18.40;12.38;;;;;;;12.83;100.00;95483.00;4973328;28;20767;-46
2021/05/13 07:18:43;;;;;;;17.30;13.13;;;;;;;12.92;100.00;95489.00;4982833;28;20678;-45
2021/05/13 07:21:13;;;;;;;14.23;11.88;;;;;;;13.20;100.00;95491.81;4972243;28;20093;-47
2021/05/13 07:23:43;;;;;;;15.88;11.02;;;;;;;13.24;100.00;95490.47;4983012;28;20126;-52
2021/05/13 07:26:13;;;;;;;17.38;12.73;;;;;;;13.32;100.00;95492.22;4984072;28;20038;-47
2021/05/13 07:28:44;;;;;;;14.27;11.35;;;;;;;13.09;100.00;95499.41;4961225;28;20529;-51
2021/05/13 07:31:13;;;;;;;16.60;11.77;;;;;;;13.17;100.00;95497.47;4973606;28;20085;-45
2021/05/13 07:33:42;;;;;;;15.80;11.50;;;;;;;13.31;100.00;95487.91;4978302;28;20115;-50
2021/05/13 07:36:11;;;;;;;16.75;11.75;;;;;;;13.64;100.00;95485.63;4973362;28;21068;-51
2021/05/13 07:38:40;;;;;;;14.70;11.68;;;;;;;13.24;100.00;95490.47;4975053;28;20058;-46
2021/05/13 07:41:09;;;;;;;15.95;11.98;;;;;;;13.14;100.00;95489.09;4972911;28;20109;-46
2021/05/13 07:43:38;;;;;;;14.18;10.55;;;;;;;13.20;100.00;95488.34;4978455;28;20445;-49
2021/05/13 07:46:08;;;;;;;13.93;11.20;;;;;;;13.35;100.00;95486.53;4974977;28;20481;-46
2021/05/13 07:48:37;;;;;;;;;;;;;;;12.98;100.00;95488.28;4976913;28;20050;-46
2021/05/13 07:51:06;;;;;;;15.13;10.68;;;;;;;13.33;100.00;95490.38;4974757;28;19965;-48
2021/05/13 07:53:35;;;;;;;14.05;10.70;;;;;;;13.07;100.00;95495.13;4980823;28;20050;-51
2021/05/13 07:56:04;;;;;;;14.35;10.18;;;;;;;13.06;100.00;95490.81;4977123;28;20073;-49
2021/05/13 07:58:33;;;;;;;15.02;10.82;;;;;;;13.60;100.00;95483.56;4972942;28;20555;-50
2021/05/13 08:01:02;;;;;;;15.27;10.73;;;;;;;13.56;100.00;95485.75;4973867;28;20073;-46
2021/05/13 08:03:31;;;;;;;14.38;10.20;;;;;;;13.46;100.00;95480.75;4975262;28;20474;-49
2021/05/13 08:05:59;;;;;;;13.90;9.95;;;;;;;13.43;100.00;95493.56;4973926;28;20094;-49
2021/05/13 08:08:29;;;;;;;10.77;7.60;;;;;;;13.58;100.00;95483.72;4975561;28;20435;-49
2021/05/13 08:10:59;;;;;;;9.20;7.47;;;;;;;13.90;100.00;95484.25;4976117;28;20505;-48
2021/05/13 08:13:30;;;;;;;9.55;7.30;;;;;;;14.38;100.00;95487.13;4972296;28;20182;-48
2021/05/13 08:15:59;;;;;;;8.68;7.03;;;;;;;14.02;100.00;95482.75;4974102;28;20075;-49
2021/05/13 08:18:27;;;;;;;7.82;6.18;;;;;;;14.26;100.00;95476.22;4973645;28;20038;-50
2021/05/13 08:20:57;;;;;;;8.93;7.75;;;;;;;14.55;100.00;95482.38;4973960;28;20058;-51
2021/05/13 08:23:26;;;;;;;10.33;7.53;;;;;;;14.46;100.00;95482.50;4972958;28;20473;-52
2021/05/13 08:25:55;;;;;;;9.70;7.40;;;;;;;14.55;100.00;95482.38;4977035;28;20484;-47
2021/05/13 08:28:24;;;;;;;9.32;6.88;;;;;;;14.60;100.00;95478.16;4973536;28;20065;-52
2021/05/13 08:30:53;;;;;;;8.45;6.43;;;;;;;14.52;100.00;95475.66;4978490;28;20085;-46
2021/05/13 08:33:22;;;;;;;8.55;6.80;;;;;;;14.55;100.00;95475.25;4978213;28;20040;-47
2021/05/13 08:35:51;;;;;;;9.07;7.07;;;;;;;14.69;100.00;95469.03;4974916;28;20489;-47
2021/05/13 08:38:21;;;;;;;9.07;7.68;;;;;;;14.98;100.00;95463.69;4977958;28;20126;-48
2021/05/13 08:40:49;;;;;;;9.80;8.25;;;;;;;14.99;100.00;95460.81;4973997;28;20058;-47
2021/05/13 08:43:35;;;;;;;11.57;8.18;;;;;;;15.43;100.00;95459.59;4972359;28;20066;-48
2021/05/13 08:46:04;;;;;;;10.40;7.72;;;;;;;15.28;100.00;95462.41;4972903;28;20047;-47
2021/05/13 08:48:33;;;;;;;8.40;6.40;;;;;;;15.41;100.00;95462.44;4969735;28;20132;-49
2021/05/13 08:51:02;;;;;;;9.27;6.43;;;;;;;15.48;100.00;95464.28;4972071;28;20092;-51
2021/05/13 08:53:32;;;;;;;9.70;6.73;;;;;;;15.86;100.00;95459.31;4973484;28;20097;-45
2021/05/13 08:56:00;;;;;;;7.90;6.85;;;;;;;15.58;100.00;95457.56;4969672;28;20066;-50
2021/05/13 08:58:48;;;;;;;10.80;7.05;;;;;;;16.09;100.00;95459.75;4970604;28;20056;-50
2021/05/13 09:01:17;;;;;;;7.53;6.73;;;;;;;16.10;100.00;95460.56;4972910;28;20070;-51
2021/05/13 09:03:48;;;;;;;10.52;7.63;;;;;;;16.11;100.00;95460.38;4970834;28;20062;-46
2021/05/13 09:06:27;;;;;;;10.25;7.95;;;;;;;15.19;100.00;95460.91;4966032;28;20070;-51
2021/05/13 09:09:09;;;;;;;10.85;8.52;;;;;;;15.25;100.00;95462.78;4983407;28;20469;-50
2021/05/13 09:11:48;;;;;;;12.43;8.07;;;;;;;15.29;100.00;95455.25;4974707;28;20566;-48
2021/05/13 09:14:23;;;;;;;10.27;7.75;;;;;;;15.48;100.00;95456.31;4972742;28;20097;-48
2021/05/13 09:16:53;;;;;;;9.13;7.13;;;;;;;14.94;100.00;95457.94;4974112;28;20062;-46
2021/05/13 09:19:24;;;;;;;10.55;8.60;;;;;;;15.82;100.00;95450.91;4976205;28;20532;-51
2021/05/13 09:21:55;;;;;;;;;;;;;;;15.51;100.00;95455.94;4969699;28;20254;-48
2021/05/13 09:24:48;;;;;;;9.85;7.40;;;;;;;15.55;100.00;95451.84;4974338;28;19930;-46
2021/05/13 09:27:18;;;;;;;10.57;7.55;;;;;;;15.40;100.00;95450.16;4963072;28;20093;-52
2021/05/13 09:29:47;;;;;;;;;;;;;;;15.27;100.00;95449.31;4977489;28;20030;-48
2021/05/13 09:32:17;;;;;;;12.82;7.45;;;;;;;15.07;100.00;95449.22;4971615;28;20051;-52
2021/05/13 09:34:47;;;;;;;10.82;8.15;;;;;;;15.46;100.00;95451.22;4973997;28;20093;-48
2021/05/13 09:37:16;;;;;;;10.40;7.88;;;;;;;15.73;100.00;95454.00;4975687;28;20104;-46
2021/05/13 09:39:49;;;;;;;10.68;7.68;;;;;;;16.05;100.00;95449.72;4972333;28;20075;-48
2021/05/13 09:42:19;;;;;;;12.05;7.63;;;;;;;16.07;100.00;95443.19;4968784;28;20295;-45
2021/05/13 09:44:49;;;;;;;9.93;7.45;;;;;;;15.24;100.00;95449.69;4976183;28;20763;-48
2021/05/13 09:47:20;;;;;;;9.85;7.50;;;;;;;15.36;100.00;95448.13;4965902;28;20100;-47
2021/05/13 09:49:53;;;;;;;9.73;7.32;;;;;;;15.74;100.00;95444.97;4974567;28;20071;-48
2021/05/13 09:52:43;;;;;;;11.93;7.93;;;;;;;15.82;100.00;95444.78;4974471;28;20078;-51
2021/05/13 09:55:18;;;;;;;11.93;8.88;;;;;;;16.29;100.00;95438.47;4975188;28;20052;-51
2021/05/13 09:58:04;;;;;;;10.48;8.32;;;;;;;15.97;100.00;95428.66;4966985;28;20114;-51
2021/05/13 10:00:47;;;;;;;9.32;7.53;;;;;;;16.04;100.00;95429.50;4974097;28;20646;-50
2021/05/13 10:03:33;;;;;;;9.35;7.82;;;;;;;16.41;100.00;95435.19;4979790;28;20038;-47
2021/05/13 10:06:03;;;;;;;12.93;8.57;;;;;;;17.11;100.00;95431.00;4971678;28;20073;-51
2021/05/13 10:08:32;;;;;;;8.93;7.68;;;;;;;16.61;100.00;95434.13;4983883;28;20077;-48
2021/05/13 10:11:01;;;;;;;11.38;8.65;;;;;;;16.89;100.00;95426.94;4979909;28;20078;-47
2021/05/13 10:13:32;;;;;;;10.27;7.82;;;;;;;15.43;100.00;95427.72;4973757;28;20062;-47
2021/05/13 10:16:02;;;;;;;11.38;8.45;;;;;;;15.13;100.00;95438.63;4978440;28;20101;-46
2021/05/13 10:18:36;;;;;;;9.35;8.40;;;;;;;14.84;100.00;95445.03;4975706;28;20088;-50
2021/05/13 10:21:09;;;;;;;11.05;7.93;;;;;;;14.38;100.00;95450.00;4974644;28;20468;-46
2021/05/13 10:23:38;;;;;;;10.95;8.70;;;;;;;14.23;100.00;95452.75;4980330;28;20096;-46
2021/05/13 10:26:07;;;;;;;13.77;10.38;;;;;;;14.06;100.00;95446.91;4979152;28;20073;-47
2021/05/13 10:28:37;;;;;;;13.43;9.52;;;;;;;14.10;100.00;95448.16;4978899;28;20073;-45
2021/05/13 10:31:07;;;;;;;14.20;9.85;;;;;;;14.00;100.00;95447.66;4976976;28;20073;-48
2021/05/13 10:33:47;;;;;;;;;;;;;;;14.23;100.00;95447.44;4979513;28;20050;-48
2021/05/13 10:36:22;;;;;;;14.27;10.20;;;;;;;14.28;100.00;95453.00;4978793;28;20443;-46
2021/05/13 10:39:09;;;;;;;9.32;6.95;;;;;;;14.04;100.00;95446.28;4980445;28;20524;-46
2021/05/13 10:41:39;;;;;;;;;;;;;;;14.32;100.00;95451.59;4983152;28;20133;-45
2021/05/13 10:44:41;;;;;;;13.23;8.50;;;;;;;14.62;100.00;95441.63;4979101;28;20404;-47
2021/05/13 10:47:09;;;;;;;9.82;7.35;;;;;;;14.98;100.00;95429.19;4959239;28;20074;-46
2021/05/13 10:49:48;;;;;;;12.93;8.20;;;;;;;15.90;100.00;95428.66;4974635;28;20077;-51
2021/05/13 10:52:34;;;;;;;9.05;7.82;;;;;;;17.05;100.00;95415.84;4977035;28;20100;-53
2021/05/13 10:55:06;;;;;;;9.18;7.72;;;;;;;17.01;100.00;95418.09;4962532;28;20070;-46
2021/05/13 10:57:49;;;;;;;11.57;8.73;;;;;;;17.46;100.00;95403.97;4974703;28;20102;-45
2021/05/13 11:00:28;;;;;;;10.77;8.07;;;;;;;17.29;100.00;95401.81;4980341;28;20535;-49
2021/05/13 11:02:58;;;;;;;11.03;8.07;;;;;;;17.61;100.00;95404.50;4986404;28;20090;-47
2021/05/13 11:05:48;;;;;;;11.35;7.60;;;;;;;17.67;100.00;95398.31;4974238;28;21622;-47
2021/05/13 11:08:28;;;;;;;11.20;8.03;;;;;;;18.05;100.00;95404.66;4976982;28;20046;-46
2021/05/13 11:11:02;;;;;;;9.82;7.28;;;;;;;18.06;100.00;95396.41;4988375;28;20073;-50
2021/05/13 11:13:51;;;;;;;10.20;7.30;;;;;;;17.72;100.00;95397.66;4982952;28;20066;-46
2021/05/13 11:16:54;;;;;;;10.65;6.63;;;;;;;17.71;100.00;95393.38;4976667;28;20066;-46
2021/05/13 11:19:27;;;;;;;8.77;7.07;;;;;;;18.32;100.00;95390.06;4971735;28;20070;-51
2021/05/13 11:22:02;;;;;;;9.55;7.60;;;;;;;17.91;100.00;95394.06;4976024;28;20090;-49
2021/05/13 11:24:36;;;;;;;7.32;6.13;;;;;;;17.60;100.00;95392.19;4976832;28;20097;-49
2021/05/13 11:27:06;;;;;;;7.65;6.05;;;;;;;17.19;100.00;95384.63;4978341;28;20077;-44
2021/05/13 11:29:50;;;;;;;10.65;6.53;;;;;;;17.05;100.00;95394.53;4984296;28;20065;-51
2021/05/13 11:32:20;;;;;;;10.10;6.95;;;;;;;16.86;100.00;95390.91;4975771;28;20066;-51